Time;durP1;ratioP1;P1;durP2;ratioP2;P2;SDS_P1;SDS_P2;PMS_P1;PMS_P2;Temp;Humidity;BMP_temperature;BMP_pressure;BME280_temperature;BME280_humidity;BME280_pressure;Samples;Min_cycle;Max_cycle;Signal;HPM_P1;HPM_P2
2023/03/09 00:01:39;;;;;;;12.90;11.60;;;;;;;1.56;100.00;98201.47;5033811;28;20210;-79
2023/03/09 00:04:06;;;;;;;12.90;11.70;;;;;;;1.55;100.00;98203.22;5034052;28;20206;-79
2023/03/09 00:06:32;;;;;;;12.13;10.93;;;;;;;1.62;100.00;98203.09;5032931;28;20206;-78
2023/03/09 00:08:59;;;;;;;12.67;11.30;;;;;;;1.62;100.00;98196.22;5033393;28;20643;-81
2023/03/09 00:11:26;;;;;;;11.00;10.00;;;;;;;1.63;100.00;98199.66;5033823;28;20217;-80
2023/03/09 00:13:53;;;;;;;11.43;10.33;;;;;;;1.63;99.86;98195.38;5033392;28;20386;-78
2023/03/09 00:16:21;;;;;;;11.80;10.70;;;;;;;1.62;100.00;98192.81;5040449;28;20222;-78
2023/03/09 00:18:50;;;;;;;11.00;9.97;;;;;;;1.61;100.00;98191.97;5036594;28;20702;-79
2023/03/09 00:21:34;;;;;;;11.77;10.77;;;;;;;1.63;100.00;98179.94;5053265;28;20206;-78
2023/03/09 00:24:00;;;;;;;11.33;10.20;;;;;;;1.65;100.00;98187.63;5052765;28;20208;-79
2023/03/09 00:26:27;;;;;;;11.77;10.67;;;;;;;1.53;100.00;98175.84;5053356;28;20205;-78
2023/03/09 00:28:55;;;;;;;11.93;10.83;;;;;;;1.55;100.00;98169.78;5052641;28;20230;-79
2023/03/09 00:31:21;;;;;;;12.07;10.97;;;;;;;1.59;100.00;98171.44;5052961;28;20205;-78
2023/03/09 00:33:48;;;;;;;12.90;11.67;;;;;;;1.51;100.00;98162.19;5052340;28;20209;-79
2023/03/09 00:36:15;;;;;;;13.57;12.17;;;;;;;1.56;100.00;98153.47;5052726;28;20716;-79
2023/03/09 00:38:42;;;;;;;13.87;12.47;;;;;;;1.59;100.00;98150.03;5052644;28;20229;-78
2023/03/09 00:41:08;;;;;;;15.57;13.90;;;;;;;1.61;100.00;98162.84;5052460;28;20209;-79
2023/03/09 00:43:35;;;;;;;15.30;13.80;;;;;;;1.61;100.00;98168.84;5046856;28;20265;-79
2023/03/09 00:46:03;;;;;;;14.07;12.77;;;;;;;1.64;100.00;98162.78;5037238;28;20230;-79
2023/03/09 00:48:29;;;;;;;13.63;12.40;;;;;;;1.58;100.00;98164.56;5051895;28;20224;-78
2023/03/09 00:50:56;;;;;;;12.17;11.00;;;;;;;1.58;100.00;98161.16;5053003;28;20684;-79
2023/03/09 00:53:22;;;;;;;12.10;10.93;;;;;;;1.56;100.00;98148.34;5052286;28;20202;-78
2023/03/09 00:55:49;;;;;;;11.87;10.70;;;;;;;1.60;100.00;98146.56;5052370;28;20279;-78
2023/03/09 00:58:15;;;;;;;11.40;10.30;;;;;;;1.57;100.00;98150.03;5052355;28;20241;-78
2023/03/09 01:00:41;;;;;;;10.77;9.73;;;;;;;1.63;100.00;98153.38;5054686;28;20719;-78
2023/03/09 01:03:09;;;;;;;10.20;9.30;;;;;;;1.62;100.00;98154.25;5053303;28;20201;-79
2023/03/09 01:05:37;;;;;;;8.87;8.07;;;;;;;1.62;100.00;98146.53;5039553;28;20215;-78
2023/03/09 01:08:04;;;;;;;9.63;8.73;;;;;;;1.59;100.00;98145.72;5034347;28;20223;-79
2023/03/09 01:10:30;;;;;;;10.23;9.23;;;;;;;1.56;100.00;98143.19;5034189;28;20677;-78
2023/03/09 01:12:57;;;;;;;9.30;8.43;;;;;;;1.56;100.00;98139.78;5033857;28;20206;-79
2023/03/09 01:15:23;;;;;;;8.83;8.03;;;;;;;1.63;100.00;98136.22;5034234;28;20212;-79
2023/03/09 01:17:50;;;;;;;10.47;9.50;;;;;;;1.61;100.00;98135.41;5053307;28;20308;-79
2023/03/09 01:20:18;;;;;;;9.60;8.70;;;;;;;1.55;100.00;98125.25;5054819;28;20206;-80
2023/03/09 01:22:44;;;;;;;9.07;8.27;;;;;;;1.54;100.00;98119.25;5054321;28;20218;-79
2023/03/09 01:25:11;;;;;;;9.80;8.77;;;;;;;1.62;100.00;98113.09;5054089;28;20232;-79
2023/03/09 01:27:37;;;;;;;9.27;8.40;;;;;;;1.56;99.62;98111.50;5054270;28;20209;-79
2023/03/09 01:30:05;;;;;;;9.53;8.63;;;;;;;1.52;100.00;98115.84;5053997;28;20214;-79
2023/03/09 01:32:32;;;;;;;8.93;8.13;;;;;;;1.56;100.00;98112.34;5054729;28;20232;-79
2023/03/09 01:34:58;;;;;;;10.13;9.23;;;;;;;1.57;100.00;98113.22;5054952;28;20263;-79
2023/03/09 01:37:26;;;;;;;9.57;8.67;;;;;;;1.59;99.82;98109.72;5053145;28;20707;-78
2023/03/09 01:39:52;;;;;;;9.03;8.23;;;;;;;1.59;99.84;98109.72;5046123;28;20228;-79
2023/03/09 01:42:19;;;;;;;8.77;7.93;;;;;;;1.52;99.74;98097.84;5033733;28;20201;-80
2023/03/09 01:44:45;;;;;;;8.83;7.93;;;;;;;1.54;99.69;98085.81;5037594;28;20312;-79
2023/03/09 01:47:12;;;;;;;8.63;7.83;;;;;;;1.48;100.00;98090.25;5054095;28;20202;-78
2023/03/09 01:49:43;;;;;;;10.07;9.07;;;;;;;1.50;100.00;98081.63;5054160;28;20222;-79
2023/03/09 01:52:15;;;;;;;9.03;8.13;;;;;;;1.43;100.00;98079.19;5053317;28;20225;-78
2023/03/09 01:54:48;;;;;;;8.93;8.13;;;;;;;1.41;100.00;98074.13;5053631;28;20255;-79
2023/03/09 01:57:21;;;;;;;9.33;8.23;;;;;;;1.44;100.00;98065.47;5053778;28;20664;-77
2023/03/09 01:59:51;;;;;;;9.87;8.97;;;;;;;1.42;100.00;98065.50;5057528;28;20238;-79
2023/03/09 02:02:18;;;;;;;10.17;9.17;;;;;;;1.48;100.00;98069.69;5057682;28;20222;-79
2023/03/09 02:04:49;;;;;;;9.77;8.87;;;;;;;1.51;100.00;98085.91;5056959;28;20644;-79
2023/03/09 02:07:19;;;;;;;10.47;9.47;;;;;;;1.53;100.00;98083.31;5056698;28;20210;-79
2023/03/09 02:09:50;;;;;;;9.40;8.50;;;;;;;1.52;100.00;98095.28;5056599;28;20646;-78
2023/03/09 02:12:20;;;;;;;9.40;8.50;;;;;;;1.54;100.00;98092.69;5057288;28;20206;-80
2023/03/09 02:14:47;;;;;;;8.80;8.00;;;;;;;1.55;100.00;98087.53;5054099;28;20624;-79
2023/03/09 02:17:15;;;;;;;9.77;8.87;;;;;;;1.53;100.00;98104.69;5042736;28;20218;-78
2023/03/09 02:19:54;;;;;;;9.67;8.77;;;;;;;1.52;100.00;98097.00;5056593;28;20222;-79
2023/03/09 02:22:21;;;;;;;10.17;9.10;;;;;;;1.48;100.00;98100.53;5056645;28;20204;-79
2023/03/09 02:25:01;;;;;;;10.10;9.10;;;;;;;1.50;100.00;98094.47;5055795;28;20664;-78
2023/03/09 02:27:30;;;;;;;9.80;8.83;;;;;;;1.57;100.00;98102.94;5054298;28;20692;-78
2023/03/09 02:29:57;;;;;;;9.77;8.87;;;;;;;1.61;100.00;98126.84;5054979;28;20233;-78
2023/03/09 02:32:24;;;;;;;10.37;9.37;;;;;;;1.60;100.00;98136.28;5055103;28;20211;-78
2023/03/09 02:34:50;;;;;;;10.73;9.63;;;;;;;1.60;100.00;98141.41;5055339;28;20207;-78
2023/03/09 02:37:25;;;;;;;11.23;10.10;;;;;;;1.62;99.88;98138.81;5055442;28;20226;-79
2023/03/09 02:39:56;;;;;;;11.77;10.67;;;;;;;1.61;100.00;98142.28;5055323;28;20626;-80
2023/03/09 02:42:22;;;;;;;12.40;11.23;;;;;;;1.58;100.00;98145.75;5054317;28;20228;-78
2023/03/09 02:44:50;;;;;;;11.63;10.57;;;;;;;1.57;100.00;98149.19;5051034;28;20215;-80
2023/03/09 02:47:19;;;;;;;12.00;10.87;;;;;;;1.55;100.00;98144.09;5040641;28;20199;-78
2023/03/09 02:49:45;;;;;;;11.90;10.80;;;;;;;1.53;100.00;98147.56;5055434;28;20221;-78
2023/03/09 02:52:12;;;;;;;11.00;10.00;;;;;;;1.46;100.00;98140.84;5055099;28;20206;-79
2023/03/09 02:54:39;;;;;;;11.67;10.53;;;;;;;1.44;100.00;98125.44;5054865;28;20213;-78
2023/03/09 02:57:06;;;;;;;12.10;10.90;;;;;;;1.41;100.00;98122.06;5054410;28;20225;-79
2023/03/09 02:59:32;;;;;;;11.53;10.47;;;;;;;1.45;100.00;98124.59;5055067;28;20240;-78
2023/03/09 03:02:00;;;;;;;12.03;10.93;;;;;;;1.46;100.00;98128.00;5055487;28;20665;-79
2023/03/09 03:04:27;;;;;;;11.43;10.33;;;;;;;1.36;100.00;98138.44;5054892;28;20251;-78
2023/03/09 03:06:53;;;;;;;11.10;10.10;;;;;;;1.38;100.00;98123.84;5054621;28;20214;-80
2023/03/09 03:09:20;;;;;;;11.43;10.37;;;;;;;1.39;100.00;98127.28;5055333;28;20726;-79
2023/03/09 03:11:46;;;;;;;11.27;10.17;;;;;;;1.44;100.00;98127.19;5056153;28;20202;-80
2023/03/09 03:14:13;;;;;;;11.40;10.30;;;;;;;1.41;100.00;98132.34;5056223;28;20197;-79
2023/03/09 03:16:39;;;;;;;11.07;9.97;;;;;;;1.41;100.00;98124.66;5046470;28;20234;-80
2023/03/09 03:19:07;;;;;;;10.47;9.43;;;;;;;1.44;100.00;98115.16;5055517;28;20719;-79
2023/03/09 03:21:34;;;;;;;10.83;9.83;;;;;;;1.39;100.00;98117.84;5052327;28;20649;-78
2023/03/09 03:24:00;;;;;;;11.03;10.03;;;;;;;1.37;100.00;98118.75;5055759;28;20201;-79
2023/03/09 03:26:27;;;;;;;10.73;9.73;;;;;;;1.40;100.00;98131.53;5055893;28;20202;-80
2023/03/09 03:28:53;;;;;;;11.40;10.20;;;;;;;1.41;99.98;98143.50;5054596;28;20261;-79
2023/03/09 03:31:20;;;;;;;10.60;9.60;;;;;;;1.44;100.00;98155.44;5043507;28;20204;-78
2023/03/09 03:33:46;;;;;;;10.03;9.10;;;;;;;1.43;100.00;98162.31;5034192;28;20705;-78
2023/03/09 03:36:14;;;;;;;9.90;9.00;;;;;;;1.35;100.00;98171.91;5035116;28;20210;-79
2023/03/09 03:38:41;;;;;;;12.20;11.00;;;;;;;1.35;100.00;98156.47;5034558;28;20230;-79
2023/03/09 03:41:07;;;;;;;9.77;8.83;;;;;;;1.35;100.00;98157.31;5035139;28;20229;-77
2023/03/09 03:43:34;;;;;;;9.93;9.03;;;;;;;1.39;100.00;98176.13;5033970;28;20229;-78
2023/03/09 03:46:00;;;;;;;10.40;9.40;;;;;;;1.39;99.92;98189.81;5033665;28;20665;-79
2023/03/09 03:48:27;;;;;;;10.60;9.70;;;;;;;1.41;100.00;98209.47;5033191;28;20253;-78
2023/03/09 03:50:53;;;;;;;10.47;9.47;;;;;;;1.36;99.90;98214.72;5035956;28;20217;-79
2023/03/09 03:53:21;;;;;;;10.03;9.13;;;;;;;1.35;100.00;98208.72;5052395;28;20198;-79
2023/03/09 03:55:47;;;;;;;11.27;10.27;;;;;;;1.35;100.00;98193.31;5052976;28;20260;-78
2023/03/09 03:58:14;;;;;;;10.93;9.90;;;;;;;1.39;100.00;98205.22;5050621;28;20235;-81
2023/03/09 04:00:40;;;;;;;9.97;8.97;;;;;;;1.42;100.00;98206.88;5033461;28;20256;-78
2023/03/09 04:03:07;;;;;;;10.20;9.20;;;;;;;1.47;99.58;98229.94;5033044;28;20218;-79
2023/03/09 04:05:33;;;;;;;9.40;8.50;;;;;;;1.43;99.14;98229.16;5033283;28;20237;-79
2023/03/09 04:08:00;;;;;;;10.10;9.10;;;;;;;1.42;99.71;98230.00;5032908;28;20227;-79
2023/03/09 04:10:28;;;;;;;10.00;9.10;;;;;;;1.40;99.73;98231.75;5032730;28;20215;-80
2023/03/09 04:12:55;;;;;;;9.43;8.57;;;;;;;1.38;100.00;98236.94;5032717;28;20207;-77
2023/03/09 04:15:22;;;;;;;9.80;8.90;;;;;;;1.42;99.57;98249.75;5032679;28;20233;-78
2023/03/09 04:17:48;;;;;;;9.23;8.37;;;;;;;1.43;99.86;98252.28;5033176;28;20222;-79
2023/03/09 04:20:15;;;;;;;9.47;8.57;;;;;;;1.38;100.00;98264.34;5032507;28;20233;-79
2023/03/09 04:22:41;;;;;;;9.43;8.53;;;;;;;1.41;99.98;98253.16;5050262;28;20220;-78
2023/03/09 04:25:09;;;;;;;10.30;9.40;;;;;;;1.42;100.00;98247.16;5052745;28;20210;-77
2023/03/09 04:27:37;;;;;;;9.93;8.93;;;;;;;1.31;100.00;98240.50;5054302;28;20209;-76
2023/03/09 04:30:04;;;;;;;9.00;8.20;;;;;;;1.33;100.00;98235.34;5053579;28;20225;-77
2023/03/09 04:32:30;;;;;;;9.17;8.27;;;;;;;1.33;100.00;98231.03;5052581;28;20209;-76
2023/03/09 04:34:56;;;;;;;9.63;8.70;;;;;;;1.35;100.00;98238.72;5052763;28;20660;-78
2023/03/09 04:37:23;;;;;;;9.37;8.47;;;;;;;1.36;100.00;98250.69;5051732;28;20220;-76
2023/03/09 04:39:49;;;;;;;11.27;9.43;;;;;;;1.40;100.00;98260.03;5051984;28;20633;-78
2023/03/09 04:42:16;;;;;;;8.90;8.00;;;;;;;1.42;100.00;98265.16;5052426;28;20201;-76
2023/03/09 04:44:43;;;;;;;10.53;9.57;;;;;;;1.39;100.00;98284.06;5052351;28;20240;-78
2023/03/09 04:47:12;;;;;;;10.80;9.80;;;;;;;1.41;100.00;98281.44;5052236;28;20213;-76
2023/03/09 04:49:39;;;;;;;10.43;9.33;;;;;;;1.43;100.00;98289.97;5052137;28;20225;-77
2023/03/09 04:52:05;;;;;;;9.97;8.97;;;;;;;1.44;99.52;98297.66;5048992;28;20205;-78
2023/03/09 04:54:32;;;;;;;9.53;8.63;;;;;;;1.42;100.00;98285.72;5047335;28;20199;-76
2023/03/09 04:56:58;;;;;;;10.03;9.03;;;;;;;1.41;99.71;98279.75;5031770;28;20199;-76
2023/03/09 04:59:25;;;;;;;10.13;9.23;;;;;;;1.38;100.00;98282.34;5032236;28;20236;-77
2023/03/09 05:01:53;;;;;;;9.70;8.80;;;;;;;1.36;100.00;98258.41;5031997;28;20200;-76
2023/03/09 05:04:19;;;;;;;10.00;9.00;;;;;;;1.38;100.00;98259.22;5032330;28;20204;-78
2023/03/09 05:06:47;;;;;;;10.67;9.63;;;;;;;1.38;100.00;98274.63;5031922;28;20229;-78
2023/03/09 05:09:14;;;;;;;10.90;9.80;;;;;;;1.43;100.00;98290.84;5032290;28;20303;-80
2023/03/09 05:11:40;;;;;;;11.60;10.40;;;;;;;1.45;100.00;98295.94;5031882;28;20199;-77
2023/03/09 05:14:06;;;;;;;12.10;10.90;;;;;;;1.45;100.00;98309.66;5032440;28;20206;-77
2023/03/09 05:16:33;;;;;;;11.37;10.27;;;;;;;1.36;100.00;98312.38;5032208;28;20202;-77
2023/03/09 05:19:01;;;;;;;11.87;10.70;;;;;;;1.35;100.00;98311.53;5032087;28;20226;-78
2023/03/09 05:21:27;;;;;;;11.83;10.63;;;;;;;1.35;100.00;98303.81;5039276;28;20211;-77
2023/03/09 05:23:54;;;;;;;13.10;11.60;;;;;;;1.36;100.00;98287.50;5045875;28;20207;-78
2023/03/09 05:26:20;;;;;;;12.63;11.40;;;;;;;1.42;100.00;98296.00;5032122;28;20214;-77
2023/03/09 05:28:49;;;;;;;13.93;12.23;;;;;;;1.43;100.00;98308.84;5032305;28;20234;-77
2023/03/09 05:31:16;;;;;;;13.77;12.37;;;;;;;1.45;100.00;98322.50;5032809;28;20217;-77
2023/03/09 05:33:42;;;;;;;13.50;12.17;;;;;;;1.44;100.00;98333.66;5036023;28;20213;-80
2023/03/09 05:36:17;;;;;;;14.00;12.00;;;;;;;1.44;100.00;98345.66;5036191;28;20634;-78
2023/03/09 05:38:43;;;;;;;13.00;11.70;;;;;;;1.48;100.00;98352.47;5046262;22;20292;-79
2023/03/09 05:41:10;;;;;;;13.57;12.20;;;;;;;1.38;100.00;98359.47;5005975;28;20216;-78
2023/03/09 05:43:41;;;;;;;15.87;13.00;;;;;;;1.43;100.00;98360.25;4999297;28;20208;-79
2023/03/09 05:46:08;;;;;;;14.83;13.33;;;;;;;1.43;100.00;98349.97;5007515;28;20200;-79
2023/03/09 05:48:34;;;;;;;14.50;13.07;;;;;;;1.45;100.00;98347.34;5033213;28;20219;-78
2023/03/09 05:51:01;;;;;;;14.77;13.27;;;;;;;1.44;100.00;98350.81;5036480;28;20217;-79
2023/03/09 05:53:28;;;;;;;14.63;13.00;;;;;;;1.43;100.00;98362.81;5036715;28;20211;-78
2023/03/09 05:55:57;;;;;;;15.07;13.40;;;;;;;1.47;100.00;98363.63;5037006;28;20681;-78
2023/03/09 05:58:23;;;;;;;15.23;13.60;;;;;;;1.41;100.00;98366.25;5036923;28;20230;-79
2023/03/09 06:00:52;;;;;;;16.43;14.33;;;;;;;1.37;100.00;98353.47;5036865;28;20264;-79
2023/03/09 06:03:18;;;;;;;17.03;14.37;;;;;;;1.43;100.00;98361.94;5036757;28;20210;-78
2023/03/09 06:05:45;;;;;;;16.80;13.40;;;;;;;1.44;100.00;98379.94;5036364;28;20206;-78
2023/03/09 06:08:11;;;;;;;19.07;16.80;;;;;;;1.47;100.00;98391.91;5036877;28;20283;-78
2023/03/09 06:10:39;;;;;;;20.30;17.37;;;;;;;1.46;99.60;98391.03;5036384;28;20268;-79
2023/03/09 06:13:05;;;;;;;21.27;18.07;;;;;;;1.43;100.00;98400.50;5036707;28;20285;-79
2023/03/09 06:15:32;;;;;;;25.73;18.07;;;;;;;1.43;100.00;98395.38;5033715;28;20696;-79
2023/03/09 06:17:59;;;;;;;19.00;15.40;;;;;;;1.43;100.00;98409.09;5035880;28;20241;-78
2023/03/09 06:20:25;;;;;;;18.77;15.30;;;;;;;1.43;99.89;98419.38;5036431;28;20233;-78
2023/03/09 06:22:51;;;;;;;25.57;17.17;;;;;;;1.41;100.00;98412.53;5036631;28;20210;-79
2023/03/09 06:25:18;;;;;;;18.63;14.90;;;;;;;1.43;100.00;98416.81;5036647;28;20210;-78
2023/03/09 06:27:45;;;;;;;18.13;15.90;;;;;;;1.43;100.00;98419.38;5036235;28;20665;-78
2023/03/09 06:30:13;;;;;;;15.57;13.73;;;;;;;1.37;100.00;98406.63;5035935;28;20206;-78
2023/03/09 06:32:39;;;;;;;15.87;13.60;;;;;;;1.41;100.00;98407.41;5030414;28;20199;-78
2023/03/09 06:35:06;;;;;;;16.03;14.33;;;;;;;1.36;100.00;98403.16;5012658;28;20202;-78
2023/03/09 06:37:33;;;;;;;19.27;15.97;;;;;;;1.42;100.00;98397.09;5013992;28;20238;-80
2023/03/09 06:39:59;;;;;;;18.43;15.30;;;;;;;1.43;100.00;98403.94;5018977;28;20203;-81
2023/03/09 06:42:25;;;;;;;20.77;15.40;;;;;;;1.46;100.00;98411.59;5015437;28;20202;-81
2023/03/09 06:44:53;;;;;;;17.27;14.83;;;;;;;1.47;100.00;98421.03;5015031;28;20732;-82
2023/03/09 06:47:19;;;;;;;17.10;14.90;;;;;;;1.49;100.00;98410.72;5017981;28;20710;-80
2023/03/09 06:49:46;;;;;;;19.30;15.70;;;;;;;1.51;100.00;98406.41;5016676;28;20206;-81
2023/03/09 06:52:12;;;;;;;20.87;15.13;;;;;;;1.57;100.00;98419.16;5014739;28;20234;-81
2023/03/09 06:54:39;;;;;;;17.53;14.43;;;;;;;1.49;100.00;98427.00;5015579;28;20246;-81
2023/03/09 06:57:05;;;;;;;15.70;13.73;;;;;;;1.53;100.00;98430.38;5015539;28;20691;-82
2023/03/09 06:59:32;;;;;;;14.23;12.77;;;;;;;1.52;100.00;98432.06;5014590;28;20228;-83
2023/03/09 07:01:59;;;;;;;13.07;11.77;;;;;;;1.61;100.00;98449.09;5014781;28;20205;-82
2023/03/09 07:04:25;;;;;;;13.70;12.30;;;;;;;1.69;99.84;98464.41;5014778;28;20203;-80
2023/03/09 07:06:52;;;;;;;13.90;12.67;;;;;;;1.72;99.19;98475.50;5014885;28;20258;-81
2023/03/09 07:09:18;;;;;;;14.20;12.70;;;;;;;1.74;99.33;98496.03;5014755;28;20269;-80
2023/03/09 07:11:46;;;;;;;13.67;12.37;;;;;;;1.75;98.74;98515.75;5015197;28;20199;-80
2023/03/09 07:14:12;;;;;;;13.67;12.37;;;;;;;1.75;98.45;98526.91;5016235;28;20737;-79
2023/03/09 07:16:39;;;;;;;13.77;12.37;;;;;;;1.76;98.44;98532.88;5023348;28;20256;-82
2023/03/09 07:19:06;;;;;;;15.17;13.57;;;;;;;1.81;98.67;98540.56;5035489;28;20296;-81
2023/03/09 07:21:33;;;;;;;18.87;17.27;;;;;;;1.89;98.39;98543.84;5034618;28;20437;-80
2023/03/09 07:23:59;;;;;;;15.57;14.17;;;;;;;1.91;98.28;98562.69;5035908;28;20454;-79
2023/03/09 07:26:27;;;;;;;15.77;14.33;;;;;;;1.88;97.88;98561.00;5034752;28;20628;-80
2023/03/09 07:28:53;;;;;;;13.83;12.53;;;;;;;1.95;98.04;98569.50;5034475;28;20305;-78
2023/03/09 07:31:20;;;;;;;14.10;12.70;;;;;;;1.95;96.90;98580.63;5034860;28;20204;-78
2023/03/09 07:33:49;;;;;;;12.70;11.50;;;;;;;1.93;96.80;98594.41;5035352;28;20205;-79
2023/03/09 07:36:16;;;;;;;13.87;12.57;;;;;;;1.98;96.83;98601.19;5034914;28;20206;-79
2023/03/09 07:38:43;;;;;;;14.03;12.53;;;;;;;1.96;96.39;98608.06;5034421;28;20283;-79
2023/03/09 07:41:09;;;;;;;14.30;13.00;;;;;;;1.98;96.78;98620.91;5036907;28;20674;-80
2023/03/09 07:43:35;;;;;;;13.93;12.53;;;;;;;2.05;96.86;98639.69;5036855;28;20215;-78
2023/03/09 07:46:05;;;;;;;14.57;13.13;;;;;;;2.04;96.40;98649.13;5021536;28;20678;-79
2023/03/09 07:48:32;;;;;;;14.63;12.90;;;;;;;2.06;96.12;98665.41;5034722;28;20250;-80
2023/03/09 07:50:59;;;;;;;14.47;13.00;;;;;;;2.06;95.99;98669.69;5034496;28;20623;-79
2023/03/09 07:53:27;;;;;;;14.10;12.80;;;;;;;2.09;96.22;98682.53;5034697;28;20839;-78
2023/03/09 07:55:57;;;;;;;14.13;12.77;;;;;;;2.09;95.93;98674.81;5015215;28;20332;-77
2023/03/09 07:58:23;;;;;;;13.67;12.37;;;;;;;2.09;96.24;98665.34;5009489;28;20281;-77
2023/03/09 08:00:50;;;;;;;14.70;13.30;;;;;;;2.04;96.58;98677.41;5012503;28;20282;-76
2023/03/09 08:03:16;;;;;;;14.37;12.97;;;;;;;2.06;96.44;98677.41;5011601;28;20257;-76
2023/03/09 08:05:43;;;;;;;13.53;12.27;;;;;;;2.05;96.58;98679.13;5011598;28;20199;-76
2023/03/09 08:08:11;;;;;;;13.80;12.47;;;;;;;2.07;96.55;98666.25;5012042;28;20213;-76
2023/03/09 08:10:39;;;;;;;13.93;12.53;;;;;;;2.11;96.55;98673.06;5012944;28;20669;-76
2023/03/09 08:13:06;;;;;;;13.83;12.43;;;;;;;2.14;96.56;98676.44;5012286;28;20565;-77
2023/03/09 08:15:32;;;;;;;15.13;13.63;;;;;;;2.18;96.24;98685.84;5012129;28;20195;-76
2023/03/09 08:17:59;;;;;;;13.33;12.03;;;;;;;2.15;95.94;98682.44;5022911;28;20687;-76
2023/03/09 08:20:26;;;;;;;13.50;12.20;;;;;;;2.12;96.96;98678.19;5021237;28;20235;-77
2023/03/09 08:22:52;;;;;;;13.17;11.87;;;;;;;2.15;96.75;98680.72;5013381;28;20199;-77
2023/03/09 08:25:19;;;;;;;14.60;13.10;;;;;;;2.22;96.66;98675.47;5012406;28;20198;-77
2023/03/09 08:27:47;;;;;;;13.20;11.90;;;;;;;2.23;95.69;98697.78;5013375;28;20231;-76
2023/03/09 08:30:14;;;;;;;16.30;14.93;;;;;;;2.29;95.54;98713.16;5012210;28;20514;-77
2023/03/09 08:32:42;;;;;;;14.30;12.77;;;;;;;2.27;95.77;98720.88;5015845;28;20292;-76
2023/03/09 08:35:09;;;;;;;15.43;13.23;;;;;;;2.32;95.39;98718.25;5011814;28;20235;-76
2023/03/09 08:37:36;;;;;;;16.47;14.83;;;;;;;2.29;95.35;98714.00;5012691;28;20265;-77
2023/03/09 08:40:02;;;;;;;22.93;20.53;;;;;;;2.34;95.47;98731.97;5013066;28;20241;-77
2023/03/09 08:42:28;;;;;;;15.80;14.20;;;;;;;2.34;95.25;98722.53;5013236;28;20203;-77
2023/03/09 08:44:56;;;;;;;16.77;15.38;;;;;;;2.39;94.99;98718.13;5013157;28;20442;-78
2023/03/09 08:47:23;;;;;;;14.57;13.27;;;;;;;2.40;95.17;98734.47;5024577;28;20228;-79
2023/03/09 08:49:49;;;;;;;13.63;12.33;;;;;;;2.45;94.21;98752.41;5027997;28;20224;-80
2023/03/09 08:52:16;;;;;;;12.73;11.57;;;;;;;2.38;94.37;98778.25;5016760;28;20207;-79
2023/03/09 08:54:43;;;;;;;13.57;12.27;;;;;;;2.38;93.92;98788.53;5015384;28;20269;-78
2023/03/09 08:57:09;;;;;;;13.30;12.00;;;;;;;2.38;94.16;98800.56;5013124;28;20198;-78
2023/03/09 08:59:36;;;;;;;15.03;13.63;;;;;;;2.35;94.47;98810.91;5015653;28;20259;-79
2023/03/09 09:02:05;;;;;;;13.77;12.47;;;;;;;2.38;94.47;98813.44;5012482;28;20213;-79
2023/03/09 09:04:31;;;;;;;13.97;12.67;;;;;;;2.39;94.36;98817.72;5015370;28;20230;-78
2023/03/09 09:06:58;;;;;;;12.10;11.00;;;;;;;2.39;94.13;98826.28;5014880;28;20737;-77
2023/03/09 09:09:25;;;;;;;12.73;11.43;;;;;;;2.33;95.41;98817.78;5017623;28;20581;-78
2023/03/09 09:11:51;;;;;;;14.70;11.97;;;;;;;2.29;95.35;98809.25;5017580;28;20198;-78
2023/03/09 09:14:17;;;;;;;13.47;11.77;;;;;;;2.33;95.56;98792.88;5018157;28;20203;-79
2023/03/09 09:16:43;;;;;;;14.97;13.53;;;;;;;2.33;95.17;98785.16;5027294;28;20221;-78
2023/03/09 09:19:11;;;;;;;14.23;12.70;;;;;;;2.29;95.36;98792.94;5036610;28;20226;-79
2023/03/09 09:21:38;;;;;;;15.67;14.17;;;;;;;2.32;95.35;98785.19;5022263;28;20227;-80
2023/03/09 09:24:04;;;;;;;14.33;13.03;;;;;;;2.31;95.81;98784.34;5018885;28;20210;-79
2023/03/09 09:26:31;;;;;;;13.37;12.17;;;;;;;2.27;96.38;98769.78;5019495;28;20238;-79
2023/03/09 09:29:00;;;;;;;14.10;12.70;;;;;;;2.36;96.20;98769.69;5029021;28;20222;-78
2023/03/09 09:31:27;;;;;;;13.33;12.13;;;;;;;2.39;95.82;98772.22;5024574;28;20312;-77
2023/03/09 09:33:54;;;;;;;13.27;12.07;;;;;;;2.43;95.75;98778.19;5017421;28;20218;-78
2023/03/09 09:36:21;;;;;;;13.63;12.27;;;;;;;2.45;95.67;98779.00;5019093;28;20853;-79
2023/03/09 09:38:48;;;;;;;14.40;13.00;;;;;;;2.53;95.70;98773.75;5025947;28;20287;-78
2023/03/09 09:41:19;;;;;;;13.83;12.40;;;;;;;2.63;94.97;98775.34;5023893;28;20207;-78
2023/03/09 09:43:48;;;;;;;13.73;12.33;;;;;;;2.69;94.54;98805.31;5016046;28;20670;-80
2023/03/09 09:46:19;;;;;;;13.70;12.40;;;;;;;2.75;94.34;98826.69;5002351;28;20697;-80
2023/03/09 09:48:47;;;;;;;16.87;15.27;;;;;;;2.76;93.91;98836.13;5031270;28;20963;-79
2023/03/09 09:51:54;;;;;;;17.27;15.67;;;;;;;2.81;93.55;98843.78;5024562;28;20674;-78
2023/03/09 09:54:34;;;;;;;13.87;12.57;;;;;;;2.85;93.36;98863.50;4928265;29;20205;-78
2023/03/09 09:57:03;;;;;;;15.07;13.67;;;;;;;2.88;93.00;98873.78;4935002;29;20218;-78
2023/03/09 09:59:37;;;;;;;14.43;13.07;;;;;;;2.93;92.68;98887.47;4976965;28;20288;-80
2023/03/09 10:02:23;;;;;;;15.13;13.73;;;;;;;2.97;92.40;98886.53;5018241;28;20209;-80
2023/03/09 10:04:56;;;;;;;17.23;15.57;;;;;;;2.95;92.22;98898.59;5016074;28;20212;-80
2023/03/09 10:07:24;;;;;;;14.13;12.63;;;;;;;2.99;91.60;98901.97;5015283;28;20322;-80
2023/03/09 10:09:57;;;;;;;18.37;16.50;;;;;;;3.05;91.68;98909.63;5015870;28;20207;-77
2023/03/09 10:12:23;;;;;;;17.23;15.53;;;;;;;3.11;91.21;98927.59;5015540;28;20211;-77
2023/03/09 10:14:55;;;;;;;16.17;14.47;;;;;;;3.16;91.03;98935.28;5015286;28;20209;-79
2023/03/09 10:17:29;;;;;;;14.23;12.93;;;;;;;3.25;91.25;98942.91;5018731;28;20276;-77
2023/03/09 10:19:58;;;;;;;13.43;12.03;;;;;;;3.35;90.99;98953.91;5029171;28;20231;-78
2023/03/09 10:22:27;;;;;;;14.30;13.00;;;;;;;3.37;90.42;98965.94;5016206;28;20291;-78
2023/03/09 10:24:56;;;;;;;18.70;15.93;;;;;;;3.38;89.83;98984.81;5015156;28;20770;-78
2023/03/09 10:27:29;;;;;;;14.97;13.57;;;;;;;3.35;89.47;99006.38;5015654;28;20223;-78
2023/03/09 10:30:01;;;;;;;14.83;13.50;;;;;;;3.36;89.03;99018.38;5015338;28;20208;-79
2023/03/09 10:32:38;;;;;;;14.47;13.00;;;;;;;3.35;88.87;99024.41;5014671;28;20225;-79
2023/03/09 10:35:16;;;;;;;14.13;12.83;;;;;;;3.37;89.16;99021.81;5016342;28;20206;-79
2023/03/09 10:37:42;;;;;;;14.47;13.10;;;;;;;3.38;89.32;99026.94;5016516;28;20730;-80
2023/03/09 10:40:18;;;;;;;13.97;12.67;;;;;;;3.35;88.82;99027.00;5015520;28;20626;-78
2023/03/09 10:42:44;;;;;;;12.27;10.67;;;;;;;3.34;89.24;99027.00;5000449;28;20269;-78
2023/03/09 10:45:22;;;;;;;13.90;12.57;;;;;;;3.33;89.42;99018.44;5015028;28;20263;-79
2023/03/09 10:48:00;;;;;;;12.60;11.40;;;;;;;3.34;89.50;99016.69;5022323;28;20603;-79
2023/03/09 10:50:30;;;;;;;13.00;11.73;;;;;;;3.36;89.06;99018.38;5027450;28;20239;-78
2023/03/09 10:52:57;;;;;;;13.00;11.90;;;;;;;3.36;89.49;99017.53;5014938;28;20260;-80
2023/03/09 10:55:36;;;;;;;12.70;11.17;;;;;;;3.38;90.09;99010.63;5014356;28;20635;-77
2023/03/09 10:58:14;;;;;;;13.37;12.07;;;;;;;3.33;90.10;99009.81;5014656;28;20289;-79
2023/03/09 11:00:50;;;;;;;13.10;11.53;;;;;;;3.23;90.35;98996.22;5014828;28;20300;-77
2023/03/09 11:03:21;;;;;;;14.10;12.70;;;;;;;3.26;91.01;98979.84;5014734;28;20199;-79
2023/03/09 11:05:47;;;;;;;13.00;11.70;;;;;;;3.29;90.20;98980.66;5014224;28;20207;-80
2023/03/09 11:08:24;;;;;;;17.73;16.17;;;;;;;3.40;91.17;98989.97;5030978;28;20499;-80
2023/03/09 11:11:01;;;;;;;16.03;14.43;;;;;;;3.36;90.95;99000.31;5034102;28;20233;-78
2023/03/09 11:13:28;;;;;;;13.13;11.83;;;;;;;3.36;91.05;99000.31;5033059;28;20292;-78
2023/03/09 11:16:06;;;;;;;14.47;13.07;;;;;;;3.42;90.96;98996.81;5034152;28;20217;-78
2023/03/09 11:18:32;;;;;;;14.77;13.27;;;;;;;3.40;91.17;98990.81;5032533;28;20281;-79
2023/03/09 11:20:58;;;;;;;15.73;14.13;;;;;;;3.40;90.88;99008.03;5034013;28;20258;-79
2023/03/09 11:23:30;;;;;;;15.20;13.80;;;;;;;3.39;90.72;98999.44;5033959;28;20655;-78
2023/03/09 11:26:08;;;;;;;14.40;12.90;;;;;;;3.35;90.71;98992.59;5033725;28;20206;-79
2023/03/09 11:28:44;;;;;;;32.93;25.30;;;;;;;3.33;90.66;99010.69;5033507;28;20230;-79